Vremea acum in Nucet - Romania

Vrei sa afli care e starea vremii acum in Giurgiu - Romania? Dorim sa iti furnizam starea vremii pentru Giurgiu - Romania. Starea vremii Giurgiu - Romania pentru astazi.

Vremea acum in Nucet

Temperatura: 16.6 °C

Este: Senin
Se simte ca: 16.6 °C
Innorat: 9 %
Precipitatii: 0 %
Presiune atmosferica: 1015 hPa
Umiditate: 74%
Vizibilitate: 10 km
Vantul bate din SE cu 6.5 km/h

Evolutia vremii in Nucet pe ore

Ora: 12:00
Senin
Temperatura: 19.4°C
Sansa de precipitatii: 0%
Ora Descriere Temp Se simte Precipitatii Umiditate Vant
00:00Patchy rain nearby11.5°11.4°100%90%ENE 5 KM/H
01:00Senin11.1°10.9°0%90%NE 5.4 KM/H
02:00Senin10.8°10.6°0%91%NNE 5 KM/H
03:00Patchy rain nearby10.5°10.4°64%91%NNE 4.7 KM/H
04:00Patchy rain nearby10.2°10.2°100%92%NE 4.3 KM/H
05:00Patchy rain nearby9.9°9.9°64%92%ENE 4.3 KM/H
06:00Senin9.6°9.7°0%93%ENE 4 KM/H
07:00Senin10.8°11°0%92%NE 4 KM/H
08:00Senin13.3°13.6°0%86%E 4.7 KM/H
09:00Senin15.1°15.1°0%80%ESE 5.4 KM/H
10:00Senin16.6°16.6°0%74%SE 6.5 KM/H
11:00Senin18.1°18.1°0%68%SSE 7.6 KM/H
12:00Senin19.4°19.4°0%63%SSE 8.3 KM/H
13:00Patchy rain nearby20.5°20.5°65%59%S 9.4 KM/H
14:00Patchy rain nearby21.3°21.3°100%56%S 9.4 KM/H
15:00Patchy rain nearby21.9°21.9°100%54%S 9 KM/H
16:00Patchy rain nearby22.1°24.5°100%53%S 7.9 KM/H
17:00Patchy rain nearby22.1°24.5°100%53%SSE 8.6 KM/H
18:00Patchy rain nearby21.4°21.4°100%57%SSE 9.4 KM/H
19:00Patchy rain nearby19.4°19.4°100%68%SE 8.3 KM/H
20:00Patchy rain nearby17°17°100%72%SE 6.8 KM/H
21:00Patchy rain nearby15.2°15.2°100%76%E 5 KM/H
22:00Patchy rain nearby14.1°13.9°100%81%NE 7.6 KM/H
23:00Patchy rain nearby13°12.5°100%87%NE 8.6 KM/H




tutorials